Time;durP1;ratioP1;P1;durP2;ratioP2;P2;SDS_P1;SDS_P2;PMS_P1;PMS_P2;Temp;Humidity;BMP_temperature;BMP_pressure;BME280_temperature;BME280_humidity;BME280_pressure;Samples;Min_cycle;Max_cycle;Signal;HPM_P1;HPM_P2
2022/04/22 00:00:22;;;;;;;80.93;53.83;;;19.20;53.80;;;;;;4941773;28;91557;-39
2022/04/22 00:02:48;;;;;;;82.40;54.67;;;19.20;53.80;;;;;;4945278;28;90869;-37
2022/04/22 00:05:14;;;;;;;80.95;54.15;;;19.20;53.80;;;;;;4942190;28;91197;-38
2022/04/22 00:07:39;;;;;;;82.03;54.53;;;19.20;53.80;;;;;;4947034;28;90504;-36
2022/04/22 00:10:06;;;;;;;81.00;54.30;;;19.10;53.70;;;;;;4944677;28;90215;-38
2022/04/22 00:12:32;;;;;;;80.53;54.38;;;19.20;53.80;;;;;;4949129;28;90306;-38
2022/04/22 00:14:58;;;;;;;81.95;54.28;;;19.10;53.80;;;;;;4950854;28;90084;-38
2022/04/22 00:17:23;;;;;;;81.30;54.03;;;19.10;53.80;;;;;;4951694;28;89660;-36
2022/04/22 00:19:49;;;;;;;80.97;54.05;;;19.10;53.80;;;;;;4941754;28;90094;-40
2022/04/22 00:22:15;;;;;;;81.55;54.15;;;19.10;53.80;;;;;;4946726;28;90615;-38
2022/04/22 00:24:40;;;;;;;81.15;54.10;;;19.10;53.80;;;;;;4947095;28;90762;-37
2022/04/22 00:27:06;;;;;;;81.28;53.85;;;19.10;54.40;;;;;;4953984;28;90537;-39
2022/04/22 00:29:32;;;;;;;80.50;53.90;;;19.10;53.80;;;;;;4954102;28;91028;-36
2022/04/22 00:31:57;;;;;;;82.00;53.90;;;19.10;53.90;;;;;;4950137;28;90413;-37
2022/04/22 00:34:23;;;;;;;80.57;54.10;;;19.10;53.90;;;;;;4941983;28;92034;-37
2022/04/22 00:36:49;;;;;;;81.55;53.92;;;19.00;53.80;;;;;;4950024;28;92179;-40
2022/04/22 00:39:14;;;;;;;80.10;53.67;;;19.10;53.90;;;;;;4944670;28;90013;-39
2022/04/22 00:41:40;;;;;;;80.72;53.88;;;19.10;53.90;;;;;;4939395;28;89834;-37
2022/04/22 00:44:06;;;;;;;80.55;53.85;;;19.00;53.80;;;;;;4945273;28;90908;-36
2022/04/22 00:46:31;;;;;;;80.40;53.70;;;19.00;53.80;;;;;;4948959;28;88902;-37
2022/04/22 00:48:57;;;;;;;80.25;53.80;;;19.00;53.90;;;;;;4946197;28;89938;-38
2022/04/22 00:51:23;;;;;;;79.90;53.72;;;19.00;53.90;;;;;;4942269;28;89993;-37
2022/04/22 00:53:51;;;;;;;80.63;53.58;;;19.00;53.90;;;;;;4943424;28;91242;-35
2022/04/22 00:56:17;;;;;;;81.75;54.00;;;19.00;53.80;;;;;;4946863;28;90422;-35
2022/04/22 00:58:45;;;;;;;80.40;53.53;;;19.00;53.80;;;;;;4947589;28;89910;-39
2022/04/22 01:01:11;;;;;;;81.60;53.78;;;19.00;53.80;;;;;;4943244;28;89898;-39
2022/04/22 01:03:38;;;;;;;80.07;53.38;;;19.00;53.90;;;;;;4941345;28;91866;-39
2022/04/22 01:11:35;;;;;;;79.68;53.38;;;19.00;53.80;;;;;;4941153;28;90743;-38
2022/04/22 01:14:06;;;;;;;80.10;53.50;;;18.90;53.80;;;;;;4943502;28;91150;-38
2022/04/22 01:16:32;;;;;;;81.63;53.75;;;18.90;53.80;;;;;;4951582;28;89768;-38
2022/04/22 01:18:58;;;;;;;79.35;53.30;;;18.90;53.70;;;;;;4950858;28;90984;-37
2022/04/22 01:21:24;;;;;;;79.65;53.33;;;18.90;53.80;;;;;;4944470;28;89775;-37
2022/04/22 01:23:50;;;;;;;79.78;53.40;;;18.90;53.80;;;;;;4941835;28;89817;-40
2022/04/22 01:26:16;;;;;;;79.60;53.60;;;18.90;53.80;;;;;;4946761;28;91711;-38
2022/04/22 01:28:42;;;;;;;79.63;53.25;;;18.90;53.80;;;;;;4945050;28;91747;-41
2022/04/22 01:31:08;;;;;;;80.32;53.42;;;18.90;53.80;;;;;;4946372;28;90524;-38
2022/04/22 01:33:34;;;;;;;79.22;53.13;;;18.90;53.70;;;;;;4948835;28;90116;-37
2022/04/22 01:36:00;;;;;;;79.20;53.30;;;18.90;53.70;;;;;;4941850;28;89449;-40
2022/04/22 01:38:26;;;;;;;80.00;53.15;;;18.90;53.80;;;;;;4950985;28;90811;-35
2022/04/22 01:40:51;;;;;;;79.68;52.97;;;18.80;53.70;;;;;;4941559;28;89864;-37
2022/04/22 01:43:17;;;;;;;78.97;53.13;;;18.80;53.80;;;;;;4938387;28;94352;-39
2022/04/22 01:45:43;;;;;;;79.95;53.28;;;18.80;53.70;;;;;;4944846;28;91394;-39
2022/04/22 01:48:09;;;;;;;80.78;53.38;;;18.80;53.70;;;;;;4952706;28;89725;-40
2022/04/22 01:50:35;;;;;;;79.70;53.10;;;18.80;53.70;;;;;;4946523;28;90963;-39
2022/04/22 01:53:00;;;;;;;79.55;52.85;;;18.80;53.70;;;;;;4945226;28;94107;-36
2022/04/22 01:55:27;;;;;;;79.70;53.08;;;18.80;53.70;;;;;;4942914;28;91047;-38
2022/04/22 01:57:54;;;;;;;78.60;52.85;;;18.80;53.80;;;;;;4943835;28;89835;-39
2022/04/22 02:00:20;;;;;;;79.32;52.78;;;18.80;53.70;;;;;;4941863;28;89229;-37
2022/04/22 02:02:46;;;;;;;79.72;53.40;;;18.80;53.80;;;;;;4944489;28;89965;-39
2022/04/22 02:05:11;;;;;;;79.88;52.72;;;18.80;53.70;;;;;;4946475;28;91629;-39
2022/04/22 02:07:38;;;;;;;79.05;53.05;;;18.80;53.70;;;;;;4940131;28;90765;-41
2022/04/22 02:10:06;;;;;;;79.75;53.17;;;18.80;53.80;;;;;;4947032;28;89825;-39
2022/04/22 02:12:31;;;;;;;79.30;52.80;;;18.80;53.80;;;;;;4938309;28;97829;-36
2022/04/22 02:14:57;;;;;;;79.57;52.72;;;18.80;53.80;;;;;;4949773;28;89723;-39
2022/04/22 02:17:23;;;;;;;78.80;52.65;;;18.80;53.80;;;;;;4946959;28;89922;-37
2022/04/22 02:19:48;;;;;;;79.78;52.88;;;18.70;53.70;;;;;;4942070;28;89681;-37
2022/04/22 02:22:14;;;;;;;78.57;52.78;;;18.80;53.90;;;;;;4945068;28;93149;-40
2022/04/22 02:24:40;;;;;;;78.25;52.58;;;18.70;53.80;;;;;;4947701;28;89852;-37
2022/04/22 02:29:51;;;;;;;79.22;53.38;;;18.70;53.80;;;;;;4941719;28;89502;-36
2022/04/22 02:32:16;;;;;;;78.63;52.58;;;18.70;53.80;;;;;;4950541;28;90951;-40
2022/04/22 02:34:43;;;;;;;79.10;52.95;;;18.70;53.80;;;;;;4945008;28;90356;-35
2022/04/22 02:37:10;;;;;;;79.22;53.00;;;18.70;53.80;;;;;;4955633;28;90764;-38
2022/04/22 02:39:36;;;;;;;79.47;52.75;;;18.70;53.90;;;;;;4952709;28;90611;-38
2022/04/22 02:47:30;;;;;;;78.25;52.45;;;18.70;53.90;;;;;;4952994;28;90297;-38
2022/04/22 02:49:56;;;;;;;78.32;52.20;;;18.70;53.90;;;;;;4952098;28;90022;-39
2022/04/22 02:52:22;;;;;;;78.13;52.40;;;18.70;54.00;;;;;;4949030;28;90639;-39
2022/04/22 02:54:47;;;;;;;78.65;52.80;;;18.70;53.90;;;;;;4955466;28;90485;-39
2022/04/22 02:57:15;;;;;;;77.78;52.25;;;18.70;53.90;;;;;;4942527;28;91132;-40
2022/04/22 02:59:42;;;;;;;78.40;52.78;;;18.60;53.80;;;;;;4952138;28;92388;-41
2022/04/22 03:02:08;;;;;;;77.82;52.20;;;18.60;53.80;;;;;;4949818;28;90062;-40
2022/04/22 03:04:34;;;;;;;78.53;52.60;;;18.70;53.90;;;;;;4947446;28;89683;-37
2022/04/22 03:07:00;;;;;;;79.13;52.67;;;18.60;53.90;;;;;;4951896;28;91347;-38
2022/04/22 03:09:26;;;;;;;78.65;52.28;;;18.60;53.80;;;;;;4946947;28;89796;-39
2022/04/22 03:11:51;;;;;;;78.05;52.45;;;18.60;53.80;;;;;;4940270;28;90986;-41
2022/04/22 03:14:18;;;;;;;77.93;52.42;;;18.60;53.80;;;;;;4947589;28;91065;-40
2022/04/22 03:16:44;;;;;;;77.75;52.40;;;18.60;53.80;;;;;;4952034;28;89534;-37
2022/04/22 03:19:10;;;;;;;80.40;52.80;;;18.60;53.90;;;;;;4947604;28;91887;-37
2022/04/22 03:21:36;;;;;;;78.13;52.10;;;18.60;53.80;;;;;;4949763;28;91251;-40
2022/04/22 03:24:02;;;;;;;79.45;52.83;;;18.60;53.90;;;;;;4949254;28;91322;-37
2022/04/22 03:26:27;;;;;;;77.50;52.28;;;18.60;53.80;;;;;;4944047;28;89977;-37
2022/04/22 03:28:53;;;;;;;78.78;52.35;;;18.60;53.80;;;;;;4948042;28;92972;-39
2022/04/22 03:31:19;;;;;;;78.13;52.25;;;18.60;53.80;;;;;;4948882;28;91138;-38
2022/04/22 03:33:45;;;;;;;77.95;52.17;;;18.60;53.80;;;;;;4949812;28;90980;-41
2022/04/22 03:36:12;;;;;;;77.63;51.97;;;18.60;53.80;;;;;;4948192;28;89648;-38
2022/04/22 03:38:38;;;;;;;78.07;52.15;;;18.60;53.90;;;;;;4943950;28;89167;-38
2022/04/22 03:41:04;;;;;;;77.93;52.38;;;18.60;53.80;;;;;;4940013;28;91234;-40
2022/04/22 03:43:29;;;;;;;77.63;51.90;;;18.60;53.90;;;;;;4944358;28;91637;-40
2022/04/22 03:45:55;;;;;;;77.93;52.20;;;18.60;53.90;;;;;;4943365;28;91552;-36
2022/04/22 03:48:21;;;;;;;78.15;52.20;;;18.60;53.90;;;;;;4941958;28;95165;-39
2022/04/22 03:50:46;;;;;;;77.88;52.17;;;18.60;53.90;;;;;;4942472;28;91058;-38
2022/04/22 03:53:12;;;;;;;77.97;52.45;;;18.60;53.90;;;;;;4947189;28;90031;-40
2022/04/22 03:55:42;;;;;;;79.05;52.33;;;18.60;53.80;;;;;;4950640;28;89778;-37
2022/04/22 03:58:11;;;;;;;78.05;52.65;;;18.50;53.80;;;;;;4943736;28;97314;-38
2022/04/22 04:00:41;;;;;;;78.40;52.13;;;18.60;53.90;;;;;;4934909;28;90313;-37
2022/04/22 04:03:18;;;;;;;77.57;52.03;;;18.50;53.80;;;;;;4949591;28;90473;-41
2022/04/22 04:05:49;;;;;;;77.35;52.00;;;18.50;53.90;;;;;;4955144;28;90046;-39
2022/04/22 04:08:16;;;;;;;77.85;52.13;;;18.50;53.90;;;;;;4950030;28;89351;-37
2022/04/22 04:16:11;;;;;;;77.18;52.05;;;18.50;54.00;;;;;;4934679;28;94518;-40
2022/04/22 04:18:38;;;;;;;77.45;52.08;;;18.50;54.00;;;;;;4948143;28;94062;-35
2022/04/22 04:23:50;;;;;;;77.60;52.13;;;18.50;54.00;;;;;;4949436;28;90153;-37
2022/04/22 04:26:17;;;;;;;78.22;52.15;;;18.40;54.00;;;;;;4940640;28;90144;-37
2022/04/22 04:28:44;;;;;;;77.38;52.00;;;18.40;53.90;;;;;;4953546;28;90105;-39
2022/04/22 04:31:13;;;;;;;77.18;51.75;;;18.40;54.00;;;;;;4946327;28;90141;-40
2022/04/22 04:33:39;;;;;;;77.22;51.72;;;18.40;54.10;;;;;;4946236;28;90350;-37
2022/04/22 04:36:06;;;;;;;76.53;51.70;;;18.40;54.00;;;;;;4948063;28;91648;-39
2022/04/22 04:38:32;;;;;;;78.32;52.10;;;18.40;54.10;;;;;;4955235;28;90122;-35
2022/04/22 04:40:59;;;;;;;76.88;51.88;;;18.40;54.10;;;;;;4941002;28;95578;-36
2022/04/22 04:43:25;;;;;;;76.90;52.10;;;18.30;54.00;;;;;;4942695;28;91312;-37
2022/04/22 04:45:50;;;;;;;78.50;51.85;;;18.40;54.10;;;;;;4941251;28;91315;-36
2022/04/22 04:48:17;;;;;;;78.20;52.35;;;18.30;54.10;;;;;;4947685;28;89665;-36
2022/04/22 04:50:44;;;;;;;76.53;51.58;;;18.40;54.30;;;;;;4947637;28;94187;-38
2022/04/22 04:53:11;;;;;;;76.43;51.30;;;18.30;54.10;;;;;;4950115;28;90439;-36
2022/04/22 04:55:37;;;;;;;77.00;51.65;;;18.30;54.20;;;;;;4944122;28;89771;-39
2022/04/22 04:58:03;;;;;;;78.05;51.97;;;18.30;54.20;;;;;;4952833;28;92909;-38
2022/04/22 05:00:29;;;;;;;77.63;51.83;;;18.30;54.20;;;;;;4938742;28;91008;-38
2022/04/22 05:02:57;;;;;;;76.75;51.45;;;18.30;54.20;;;;;;4943705;28;90520;-37
2022/04/22 05:05:23;;;;;;;77.95;51.92;;;18.30;54.30;;;;;;4942442;28;90535;-39
2022/04/22 05:07:57;;;;;;;77.15;52.00;;;18.30;54.30;;;;;;4944582;28;89845;-40
2022/04/22 05:10:24;;;;;;;77.00;51.72;;;18.30;54.20;;;;;;4942134;28;90154;-38
2022/04/22 05:12:50;;;;;;;76.68;51.67;;;18.20;54.20;;;;;;4941666;28;90883;-38
2022/04/22 05:15:17;;;;;;;77.65;52.40;;;18.20;54.20;;;;;;4943008;28;89884;-40
2022/04/22 05:17:44;;;;;;;77.38;51.88;;;18.20;54.20;;;;;;4944967;28;89511;-39
2022/04/22 05:20:11;;;;;;;77.00;51.83;;;18.20;54.30;;;;;;4947574;28;91595;-40
2022/04/22 05:22:38;;;;;;;76.82;51.95;;;18.20;54.30;;;;;;4944267;28;90773;-39
2022/04/22 05:25:05;;;;;;;77.15;51.72;;;18.20;54.30;;;;;;4946073;28;90807;-38
2022/04/22 05:27:32;;;;;;;77.60;51.97;;;18.20;54.40;;;;;;4938766;28;90201;-40
2022/04/22 05:32:47;;;;;;;77.80;52.45;;;18.20;54.40;;;;;;4932148;28;91406;-42
2022/04/22 05:35:14;;;;;;;77.40;52.15;;;18.20;54.20;;;;;;4946727;28;89787;-41
2022/04/22 05:37:49;;;;;;;77.85;51.63;;;18.20;54.20;;;;;;4947628;28;89352;-38
2022/04/22 05:40:18;;;;;;;76.40;51.85;;;18.10;54.20;;;;;;4944441;28;90052;-41
2022/04/22 05:42:45;;;;;;;78.10;52.17;;;18.10;54.20;;;;;;4936274;28;93019;-41
2022/04/22 05:45:13;;;;;;;76.95;51.75;;;18.20;54.30;;;;;;4940923;28;89912;-35
2022/04/22 05:47:40;;;;;;;77.60;51.92;;;18.20;54.30;;;;;;4950655;28;90057;-38
2022/04/22 05:50:08;;;;;;;77.13;52.20;;;18.20;54.20;;;;;;4947474;28;91129;-41
2022/04/22 05:52:35;;;;;;;76.32;51.58;;;18.10;54.30;;;;;;4952887;28;90681;-38
2022/04/22 05:55:02;;;;;;;77.15;51.88;;;18.10;54.30;;;;;;4954366;28;89863;-41
2022/04/22 05:57:34;;;;;;;77.38;51.78;;;18.10;54.20;;;;;;4954817;28;90582;-41
2022/04/22 06:00:04;;;;;;;77.03;51.65;;;18.10;54.20;;;;;;4943928;28;90870;-38
2022/04/22 06:02:30;;;;;;;76.88;51.65;;;18.10;54.30;;;;;;4936716;28;93229;-36
2022/04/22 06:04:56;;;;;;;77.03;51.92;;;18.10;54.30;;;;;;4949168;28;89634;-37
2022/04/22 06:07:21;;;;;;;77.53;51.42;;;18.10;54.20;;;;;;4941993;28;89964;-37
2022/04/22 06:12:32;;;;;;;76.18;51.53;;;18.10;54.20;;;;;;4949617;28;91374;-37
2022/04/22 06:15:02;;;;;;;76.47;51.70;;;18.10;54.10;;;;;;4937902;28;92507;-38
2022/04/22 06:17:29;;;;;;;76.95;51.38;;;18.10;54.20;;;;;;4935364;28;91756;-37
2022/04/22 06:19:56;;;;;;;76.60;51.90;;;18.10;54.20;;;;;;4938357;28;91092;-39
2022/04/22 06:22:22;;;;;;;76.75;51.75;;;18.10;54.30;;;;;;4935389;28;90105;-36
2022/04/22 06:24:47;;;;;;;77.13;52.03;;;18.10;54.20;;;;;;4944874;28;89798;-36
2022/04/22 06:27:13;;;;;;;77.40;52.20;;;18.10;54.30;;;;;;4939524;28;95196;-42
2022/04/22 06:29:39;;;;;;;77.20;52.35;;;18.10;54.20;;;;;;4944223;28;90234;-42
2022/04/22 06:32:05;;;;;;;76.75;51.83;;;18.10;54.10;;;;;;4941029;28;89591;-35
2022/04/22 06:34:31;;;;;;;76.43;51.58;;;18.10;54.30;;;;;;4946823;28;90253;-41
2022/04/22 06:36:57;;;;;;;76.95;52.05;;;18.10;54.20;;;;;;4944890;28;89899;-41
2022/04/22 06:39:23;;;;;;;76.25;51.53;;;18.20;54.30;;;;;;4944324;28;92741;-37
2022/04/22 06:47:18;;;;;;;77.35;51.42;;;18.20;54.50;;;;;;4939416;28;91263;-40
2022/04/22 06:49:44;;;;;;;79.85;51.80;;;18.10;54.40;;;;;;4944484;28;90644;-42
2022/04/22 06:52:10;;;;;;;77.65;51.72;;;18.20;54.40;;;;;;4938477;28;90719;-35
2022/04/22 06:54:36;;;;;;;78.43;51.70;;;18.20;54.40;;;;;;4938693;28;96034;-39
2022/04/22 06:57:03;;;;;;;77.60;51.85;;;18.20;54.40;;;;;;4948317;28;89234;-39
2022/04/22 06:59:31;;;;;;;79.82;52.05;;;18.20;54.30;;;;;;4942928;28;89921;-35
2022/04/22 07:01:57;;;;;;;79.13;52.17;;;18.20;54.50;;;;;;4942627;28;96330;-37
2022/04/22 07:04:24;;;;;;;78.38;52.05;;;18.20;54.40;;;;;;4942450;28;91420;-40
2022/04/22 07:06:50;;;;;;;79.18;52.25;;;18.20;54.50;;;;;;4945705;28;90144;-39
2022/04/22 07:09:17;;;;;;;79.05;52.00;;;18.20;54.40;;;;;;4950121;28;91148;-40
2022/04/22 07:11:44;;;;;;;79.55;52.03;;;18.20;54.40;;;;;;4941569;28;96211;-36
2022/04/22 07:14:11;;;;;;;78.60;52.15;;;18.20;54.50;;;;;;4943314;28;90230;-38
2022/04/22 07:16:43;;;;;;;77.80;52.17;;;18.20;54.40;;;;;;4938026;28;91365;-37
2022/04/22 07:19:09;;;;;;;79.20;52.55;;;18.20;55.00;;;;;;4942455;28;90413;-38
2022/04/22 07:21:35;;;;;;;78.88;52.17;;;18.30;54.50;;;;;;4943613;28;91677;-37
2022/04/22 07:24:01;;;;;;;82.68;52.28;;;18.20;54.40;;;;;;4950305;28;90276;-34
2022/04/22 07:26:27;;;;;;;81.18;52.25;;;18.30;54.50;;;;;;4948118;28;90134;-42
2022/04/22 07:28:56;;;;;;;80.43;52.30;;;18.30;54.50;;;;;;4946863;28;92560;-38
2022/04/22 07:31:22;;;;;;;81.28;52.40;;;18.30;54.40;;;;;;4946088;28;90792;-36
2022/04/22 07:33:49;;;;;;;79.38;51.92;;;18.30;54.50;;;;;;4944673;28;89573;-42
2022/04/22 07:36:15;;;;;;;81.28;52.17;;;18.20;54.50;;;;;;4944431;28;90217;-40
2022/04/22 07:38:41;;;;;;;79.57;52.40;;;18.30;54.50;;;;;;4939134;28;91574;-36
2022/04/22 07:41:09;;;;;;;78.43;52.22;;;18.30;54.50;;;;;;4934648;28;90138;-41
2022/04/22 07:49:05;;;;;;;80.30;52.60;;;18.40;54.50;;;;;;4944905;28;91564;-39
2022/04/22 07:51:31;;;;;;;79.65;52.63;;;18.40;54.50;;;;;;4946034;28;91985;-40
2022/04/22 07:53:57;;;;;;;79.03;52.60;;;18.30;54.50;;;;;;4941479;28;96730;-40
2022/04/22 07:56:23;;;;;;;80.93;52.60;;;18.40;54.50;;;;;;4944060;28;90901;-37
2022/04/22 07:58:49;;;;;;;79.10;52.58;;;18.40;54.50;;;;;;4945279;28;89914;-41
2022/04/22 08:01:15;;;;;;;81.70;53.25;;;18.40;54.50;;;;;;4948414;28;91088;-40
2022/04/22 08:03:41;;;;;;;80.78;53.33;;;18.40;54.60;;;;;;4951407;28;89962;-39
2022/04/22 08:06:06;;;;;;;82.45;53.15;;;18.40;54.60;;;;;;4951037;28;90495;-41
2022/04/22 08:08:32;;;;;;;80.45;53.13;;;18.40;54.60;;;;;;4941783;28;92188;-37
2022/04/22 08:10:58;;;;;;;81.93;53.38;;;18.40;54.60;;;;;;4946858;28;89924;-38
2022/04/22 08:13:26;;;;;;;80.13;53.17;;;18.40;54.70;;;;;;4946885;28;89929;-39
2022/04/22 08:15:52;;;;;;;83.75;53.75;;;18.40;55.00;;;;;;4943053;28;89888;-40
2022/04/22 08:18:18;;;;;;;82.82;53.55;;;18.40;55.00;;;;;;4944478;28;91642;-41
2022/04/22 08:20:44;;;;;;;81.50;53.53;;;18.40;54.90;;;;;;4950695;28;91429;-41
2022/04/22 08:23:11;;;;;;;84.88;53.50;;;18.50;54.90;;;;;;4940775;28;91460;-39
2022/04/22 08:25:37;;;;;;;81.65;53.47;;;18.50;54.90;;;;;;4945770;28;89800;-41
2022/04/22 08:28:03;;;;;;;84.95;53.67;;;18.50;54.80;;;;;;4942153;28;90558;-42
2022/04/22 08:30:29;;;;;;;84.15;53.65;;;18.50;54.80;;;;;;4948334;28;89598;-42
2022/04/22 08:32:55;;;;;;;81.03;52.80;;;18.50;54.70;;;;;;4947861;28;91297;-41
2022/04/22 08:35:21;;;;;;;80.72;53.30;;;18.50;54.70;;;;;;4942264;28;89425;-36
2022/04/22 08:37:47;;;;;;;82.60;53.55;;;18.50;54.70;;;;;;4946679;28;90551;-42
2022/04/22 08:40:13;;;;;;;81.40;53.53;;;18.50;54.70;;;;;;4952088;28;90517;-36
2022/04/22 08:42:40;;;;;;;81.45;53.08;;;18.50;54.60;;;;;;4935695;28;90665;-39
2022/04/22 08:45:07;;;;;;;83.32;53.10;;;18.50;54.60;;;;;;4934561;27;90417;-41
2022/04/22 08:50:20;;;;;;;82.93;53.78;;;18.50;54.60;;;;;;4939132;28;96886;-42
2022/04/22 08:53:02;;;;;;;84.57;53.55;;;18.50;54.50;;;;;;4943011;28;96735;-40
2022/04/22 08:55:30;;;;;;;82.32;53.85;;;18.60;54.50;;;;;;4935267;28;90134;-37
2022/04/22 08:57:56;;;;;;;81.10;53.83;;;18.60;54.50;;;;;;4939001;28;91328;-34
2022/04/22 09:00:22;;;;;;;82.55;53.63;;;18.60;54.40;;;;;;4953366;28;90038;-39
2022/04/22 09:02:49;;;;;;;82.68;53.97;;;18.60;54.40;;;;;;4949619;28;89932;-37
2022/04/22 09:05:14;;;;;;;82.50;53.83;;;18.60;54.40;;;;;;4947562;28;90242;-39
2022/04/22 09:07:43;;;;;;;84.50;53.97;;;18.60;54.30;;;;;;4942168;28;93214;-41
2022/04/22 09:10:11;;;;;;;83.20;54.17;;;18.70;54.30;;;;;;4941551;28;89980;-39
2022/04/22 09:12:37;;;;;;;83.50;53.78;;;18.70;54.30;;;;;;4940446;28;89723;-35
2022/04/22 09:15:03;;;;;;;83.65;54.00;;;18.70;54.20;;;;;;4937260;28;96167;-38
2022/04/22 09:17:36;;;;;;;84.25;54.35;;;18.70;54.10;;;;;;4931049;28;90796;-41
2022/04/22 09:20:05;;;;;;;83.25;53.97;;;18.70;54.10;;;;;;4945289;28;89826;-38
2022/04/22 09:22:35;;;;;;;81.93;54.03;;;18.70;54.10;;;;;;4946281;28;89987;-41
2022/04/22 09:25:02;;;;;;;85.65;54.00;;;18.70;54.00;;;;;;4943086;28;92923;-39
2022/04/22 09:27:43;;;;;;;84.13;54.17;;;18.80;53.90;;;;;;4941447;28;90848;-42
2022/04/22 09:30:11;;;;;;;85.80;54.05;;;18.80;53.90;;;;;;4952740;28;89909;-37
2022/04/22 09:32:39;;;;;;;82.68;54.28;;;18.80;53.80;;;;;;4951236;28;90828;-38
2022/04/22 09:35:10;;;;;;;82.55;54.13;;;18.80;53.70;;;;;;4949539;28;89786;-38
2022/04/22 09:43:45;;;;;;;82.72;54.30;;;18.80;53.50;;;;;;4946159;28;90085;-42
2022/04/22 09:46:33;;;;;;;83.60;53.85;;;18.90;53.60;;;;;;4946366;28;91470;-39
2022/04/22 09:48:59;;;;;;;82.00;53.85;;;18.90;53.60;;;;;;4950879;28;90818;-41
2022/04/22 09:51:27;;;;;;;82.45;53.53;;;18.90;53.50;;;;;;4947138;28;89484;-40
2022/04/22 09:54:20;;;;;;;83.82;54.30;;;18.90;53.50;;;;;;4947061;28;92461;-38
2022/04/22 09:56:56;;;;;;;82.53;54.25;;;18.90;53.50;;;;;;4953700;28;90563;-37
2022/04/22 09:59:26;;;;;;;84.10;54.20;;;18.90;53.40;;;;;;4951360;28;92041;-41
2022/04/22 10:01:53;;;;;;;85.30;54.30;;;18.90;53.40;;;;;;4949199;28;91053;-40
2022/04/22 10:04:20;;;;;;;83.28;54.30;;;19.00;53.30;;;;;;4948419;28;91611;-36
2022/04/22 10:06:47;;;;;;;83.78;54.53;;;18.90;53.30;;;;;;4950005;28;89982;-39
2022/04/22 10:09:14;;;;;;;84.90;54.40;;;19.00;53.40;;;;;;4951494;28;90491;-42
2022/04/22 10:11:47;;;;;;;83.82;54.63;;;19.00;53.30;;;;;;4946883;28;90566;-41
2022/04/22 10:14:15;;;;;;;82.63;54.50;;;19.00;53.30;;;;;;4942275;28;89974;-35
2022/04/22 10:16:43;;;;;;;83.40;54.58;;;19.00;53.30;;;;;;4945237;28;89221;-35
2022/04/22 10:19:09;;;;;;;84.13;54.30;;;19.00;53.30;;;;;;4948184;28;90822;-38
2022/04/22 10:21:37;;;;;;;85.75;54.42;;;19.10;53.30;;;;;;4949016;28;90730;-37
2022/04/22 10:24:03;;;;;;;84.75;54.60;;;19.00;53.20;;;;;;4952386;28;91183;-39
2022/04/22 10:26:29;;;;;;;85.20;54.53;;;19.10;53.30;;;;;;4955490;28;89986;-38
2022/04/22 10:28:56;;;;;;;83.65;54.00;;;19.10;53.30;;;;;;4957411;28;89527;-41
2022/04/22 10:31:23;;;;;;;85.55;54.05;;;19.00;53.20;;;;;;4945332;28;90319;-39
2022/04/22 10:33:49;;;;;;;83.53;53.80;;;19.10;53.30;;;;;;4944462;28;89600;-38
2022/04/22 10:36:20;;;;;;;83.13;54.13;;;19.10;53.30;;;;;;4947973;28;91702;-38
2022/04/22 10:38:50;;;;;;;91.03;55.45;;;19.10;53.20;;;;;;4953732;28;90198;-40
2022/04/22 10:41:20;;;;;;;87.28;56.38;;;19.10;53.40;;;;;;4952780;28;90595;-37
2022/04/22 10:47:13;;;;;;;86.80;56.42;;;19.20;53.70;;;;;;4946515;28;91051;-41
2022/04/22 10:49:39;;;;;;;87.30;56.28;;;19.20;54.30;;;;;;4953098;28;90939;-36
2022/04/22 10:52:18;;;;;;;87.47;56.10;;;19.20;54.90;;;;;;4941160;28;95915;-38
2022/04/22 10:54:52;;;;;;;88.88;56.33;;;19.30;55.90;;;;;;4950465;28;91020;-38
2022/04/22 10:57:20;;;;;;;87.70;56.58;;;19.40;56.40;;;;;;4956844;28;91518;-37
2022/04/22 10:59:47;;;;;;;86.53;56.97;;;19.40;56.70;;;;;;4947248;28;90604;-37
2022/04/22 11:02:32;;;;;;;89.72;56.45;;;19.40;57.20;;;;;;4948978;28;96099;-38
2022/04/22 11:05:19;;;;;;;87.28;56.70;;;19.40;56.90;;;;;;4945488;28;89829;-37
2022/04/22 11:07:50;;;;;;;87.68;56.45;;;19.40;56.80;;;;;;4938451;28;89646;-41
2022/04/22 11:10:48;;;;;;;87.78;55.88;;;19.40;56.90;;;;;;4943098;28;90485;-36
2022/04/22 11:13:30;;;;;;;85.97;56.08;;;19.40;56.30;;;;;;4939079;28;90210;-39
2022/04/22 11:16:30;;;;;;;86.03;55.97;;;19.50;56.10;;;;;;4942218;28;91224;-37
2022/04/22 11:19:24;;;;;;;84.90;55.53;;;19.50;56.00;;;;;;4947720;28;90182;-35
2022/04/22 11:21:55;;;;;;;86.07;56.00;;;19.50;55.30;;;;;;4943854;28;90615;-38
2022/04/22 11:24:25;;;;;;;86.65;56.33;;;19.50;55.20;;;;;;4948936;28;91196;-37
2022/04/22 11:26:52;;;;;;;85.60;55.67;;;19.50;55.20;;;;;;4952381;28;89940;-36
2022/04/22 11:29:18;;;;;;;86.38;55.38;;;19.50;55.00;;;;;;4960058;28;89718;-37
2022/04/22 11:31:57;;;;;;;85.20;55.42;;;19.50;54.80;;;;;;4951601;28;90153;-39
2022/04/22 11:34:45;;;;;;;85.35;55.75;;;19.50;54.80;;;;;;4955462;28;89741;-36
2022/04/22 11:37:18;;;;;;;85.40;55.03;;;19.60;54.70;;;;;;4953969;28;89994;-39
2022/04/22 11:39:47;;;;;;;85.75;55.70;;;19.60;54.60;;;;;;4955138;28;92136;-37
2022/04/22 11:42:15;;;;;;;85.75;55.00;;;19.60;54.30;;;;;;4952169;28;90690;-37
2022/04/22 11:44:41;;;;;;;84.40;54.95;;;19.60;54.20;;;;;;4947930;28;96074;-40
2022/04/22 11:47:07;;;;;;;84.95;55.13;;;19.60;54.10;;;;;;4950266;28;90182;-39
2022/04/22 11:49:33;;;;;;;85.65;55.50;;;19.60;54.20;;;;;;4960227;28;89601;-39
2022/04/22 11:52:00;;;;;;;83.28;54.67;;;19.60;54.00;;;;;;4952920;28;89876;-38
2022/04/22 11:54:26;;;;;;;85.03;54.95;;;19.60;54.10;;;;;;4952042;28;89751;-37
2022/04/22 11:56:53;;;;;;;83.38;54.60;;;19.60;53.90;;;;;;4956959;28;89941;-39
2022/04/22 11:59:22;;;;;;;86.63;55.22;;;19.60;53.90;;;;;;4959599;28;89280;-39
2022/04/22 12:10:03;;;;;;;83.43;54.78;;;19.70;53.70;;;;;;4958725;28;89924;-39
2022/04/22 12:12:29;;;;;;;83.18;54.35;;;19.70;53.60;;;;;;4949804;28;90129;-39
2022/04/22 12:15:02;;;;;;;84.65;54.80;;;19.70;53.60;;;;;;4935856;28;92707;-34
2022/04/22 12:17:29;;;;;;;83.97;54.58;;;19.60;53.50;;;;;;4948202;28;89885;-39
2022/04/22 12:19:55;;;;;;;83.95;54.72;;;19.70;53.60;;;;;;4954445;28;89587;-36
2022/04/22 12:22:21;;;;;;;84.57;54.75;;;19.70;53.50;;;;;;4955836;28;89500;-39
2022/04/22 12:25:06;;;;;;;85.00;54.55;;;19.70;53.40;;;;;;4960810;28;89057;-37
2022/04/22 12:27:31;;;;;;;83.25;54.22;;;19.70;53.30;;;;;;4952741;28;89827;-36
2022/04/22 12:30:02;;;;;;;83.32;54.20;;;19.70;53.20;;;;;;4955083;28;89810;-36
2022/04/22 12:32:28;;;;;;;83.75;54.72;;;19.70;53.20;;;;;;4949014;28;91828;-36
2022/04/22 12:35:10;;;;;;;83.93;54.83;;;19.70;53.10;;;;;;4951904;28;93750;-39
2022/04/22 12:37:35;;;;;;;84.07;54.55;;;19.80;53.10;;;;;;4952424;28;89509;-36
2022/04/22 12:40:09;;;;;;;85.25;55.05;;;19.80;53.50;;;;;;4961184;28;90062;-40
2022/04/22 12:42:36;;;;;;;84.18;54.42;;;19.80;52.90;;;;;;4951369;28;94544;-37
2022/04/22 12:53:29;;;;;;;84.07;54.38;;;19.80;52.70;;;;;;4948169;28;89849;-36
2022/04/22 12:56:02;;;;;;;86.22;54.85;;;19.80;52.70;;;;;;4961637;28;89693;-34
2022/04/22 12:58:28;;;;;;;84.32;54.50;;;19.80;52.70;;;;;;4945756;28;93189;-38
2022/04/22 13:00:54;;;;;;;83.93;54.63;;;19.80;52.70;;;;;;4939416;28;90100;-41
2022/04/22 13:03:23;;;;;;;84.47;54.40;;;19.80;52.60;;;;;;4952686;28;89796;-38
2022/04/22 13:05:49;;;;;;;83.97;54.28;;;19.80;52.50;;;;;;4945048;28;90018;-42
2022/04/22 13:08:15;;;;;;;83.43;54.20;;;19.80;52.50;;;;;;4945394;28;89917;-40
2022/04/22 13:10:41;;;;;;;83.38;54.22;;;19.80;52.50;;;;;;4949222;28;90881;-38
2022/04/22 13:13:08;;;;;;;83.88;54.10;;;19.80;52.50;;;;;;4938122;28;91956;-36
2022/04/22 13:15:34;;;;;;;83.63;54.25;;;19.90;52.60;;;;;;4938882;28;90053;-39
2022/04/22 13:18:00;;;;;;;83.50;54.00;;;19.80;52.50;;;;;;4946134;28;91322;-39
2022/04/22 13:20:25;;;;;;;83.57;54.35;;;19.80;52.50;;;;;;4948247;28;89891;-39
2022/04/22 13:22:51;;;;;;;83.47;54.08;;;19.90;52.50;;;;;;4943102;28;91663;-37
2022/04/22 13:25:17;;;;;;;83.80;54.05;;;19.90;52.50;;;;;;4943193;28;91313;-37
2022/04/22 13:27:47;;;;;;;84.63;54.35;;;19.90;52.40;;;;;;4937366;28;93444;-37
2022/04/22 13:30:16;;;;;;;83.88;54.45;;;19.90;52.50;;;;;;4942449;28;93397;-36
2022/04/22 13:32:42;;;;;;;86.15;54.03;;;19.90;52.40;;;;;;4941462;28;90871;-39
2022/04/22 13:35:10;;;;;;;85.63;54.25;;;19.90;52.30;;;;;;4939930;28;90735;-40
2022/04/22 13:37:36;;;;;;;83.88;54.22;;;19.90;52.20;;;;;;4933850;28;96803;-40